Bryant, Wisconsin
Current Conditions -  °F | °C
As of 10:15 AM on Thursday 23 Oct 2014 (Local Time) from KAIG Reporting Station
Haze Haze  
Wind Chill: 34°   Ceiling: 1500
Heat Index: 39°   Visibility: 4mi
Dew Point: 37°   Wind: 7mph
Humidity: 95%   Direction: 170°S
Pressure: 30.09"   Gusts: NA
Location:  45.21°N, 89.02°W
Report Text: KAIG 231515Z AUTO 17006KT 4SM BR OVC015 04/03 A3009 RMK AO2 T00370030
Loading
Personal Weather Stations






























Interactive Weather Map New forecast layout! Learn more

10-Day Weather Forecast

Advertisements
Track Severe Weather on mobile